sensor_id;sensor_type;location;lat;lon;timestamp;temperature;humidity
24744;DHT22;12844;52.110;5.548;2024-02-21T00:09:13;18.80;58.10
24744;DHT22;12844;52.110;5.548;2024-02-21T00:11:39;18.80;58.10
24744;DHT22;12844;52.110;5.548;2024-02-21T00:14:04;18.80;58.10
24744;DHT22;12844;52.110;5.548;2024-02-21T00:16:30;18.70;58.10
24744;DHT22;12844;52.110;5.548;2024-02-21T00:18:56;18.70;58.10
24744;DHT22;12844;52.110;5.548;2024-02-21T00:21:21;18.70;58.10
24744;DHT22;12844;52.110;5.548;2024-02-21T00:23:47;18.70;58.10
24744;DHT22;12844;52.110;5.548;2024-02-21T00:26:14;18.70;58.10
24744;DHT22;12844;52.110;5.548;2024-02-21T00:28:40;18.70;58.10
24744;DHT22;12844;52.110;5.548;2024-02-21T00:31:05;18.70;58.10
24744;DHT22;12844;52.110;5.548;2024-02-21T00:33:31;18.70;58.10
24744;DHT22;12844;52.110;5.548;2024-02-21T00:35:56;18.70;58.10
24744;DHT22;12844;52.110;5.548;2024-02-21T00:38:22;18.70;58.10
24744;DHT22;12844;52.110;5.548;2024-02-21T00:40:47;18.70;58.10
24744;DHT22;12844;52.110;5.548;2024-02-21T00:43:13;18.70;58.10
24744;DHT22;12844;52.110;5.548;2024-02-21T00:45:39;18.70;58.10
24744;DHT22;12844;52.110;5.548;2024-02-21T00:48:05;18.60;58.00
24744;DHT22;12844;52.110;5.548;2024-02-21T00:50:30;18.70;58.00
24744;DHT22;12844;52.110;5.548;2024-02-21T00:52:56;18.60;58.00
24744;DHT22;12844;52.110;5.548;2024-02-21T00:55:22;18.70;58.00
24744;DHT22;12844;52.110;5.548;2024-02-21T00:57:47;18.60;58.00
24744;DHT22;12844;52.110;5.548;2024-02-21T01:00:13;18.60;58.70
24744;DHT22;12844;52.110;5.548;2024-02-21T01:02:39;18.70;58.10
24744;DHT22;12844;52.110;5.548;2024-02-21T01:05:05;18.60;58.70
24744;DHT22;12844;52.110;5.548;2024-02-21T01:07:31;18.60;58.00
24744;DHT22;12844;52.110;5.548;2024-02-21T01:09:56;18.70;58.10
24744;DHT22;12844;52.110;5.548;2024-02-21T01:12:22;18.60;58.10
24744;DHT22;12844;52.110;5.548;2024-02-21T01:14:47;18.60;58.70
24744;DHT22;12844;52.110;5.548;2024-02-21T01:17:15;18.60;58.00
24744;DHT22;12844;52.110;5.548;2024-02-21T01:19:41;18.60;58.00
24744;DHT22;12844;52.110;5.548;2024-02-21T01:22:06;18.60;58.70
24744;DHT22;12844;52.110;5.548;2024-02-21T01:24:32;18.60;58.00
24744;DHT22;12844;52.110;5.548;2024-02-21T01:26:58;18.60;58.00
24744;DHT22;12844;52.110;5.548;2024-02-21T01:29:23;18.60;58.00
24744;DHT22;12844;52.110;5.548;2024-02-21T01:31:49;18.60;58.00
24744;DHT22;12844;52.110;5.548;2024-02-21T01:34:15;18.60;58.00
24744;DHT22;12844;52.110;5.548;2024-02-21T01:36:40;18.60;58.70
24744;DHT22;12844;52.110;5.548;2024-02-21T01:39:07;18.60;58.00
24744;DHT22;12844;52.110;5.548;2024-02-21T01:41:33;18.60;58.00
24744;DHT22;12844;52.110;5.548;2024-02-21T01:43:59;18.60;58.00
24744;DHT22;12844;52.110;5.548;2024-02-21T01:46:24;18.60;58.00
24744;DHT22;12844;52.110;5.548;2024-02-21T01:48:57;18.60;58.00
24744;DHT22;12844;52.110;5.548;2024-02-21T01:51:24;18.60;58.00
24744;DHT22;12844;52.110;5.548;2024-02-21T01:53:51;18.60;58.00
24744;DHT22;12844;52.110;5.548;2024-02-21T01:56:17;18.60;58.00
24744;DHT22;12844;52.110;5.548;2024-02-21T01:58:44;18.60;58.10
24744;DHT22;12844;52.110;5.548;2024-02-21T02:01:10;18.60;58.00
24744;DHT22;12844;52.110;5.548;2024-02-21T02:03:37;18.60;58.00
24744;DHT22;12844;52.110;5.548;2024-02-21T02:06:03;18.60;58.00
24744;DHT22;12844;52.110;5.548;2024-02-21T02:08:30;18.60;58.00
24744;DHT22;12844;52.110;5.548;2024-02-21T02:10:57;18.60;58.00
24744;DHT22;12844;52.110;5.548;2024-02-21T02:13:22;18.60;58.00
24744;DHT22;12844;52.110;5.548;2024-02-21T02:15:49;18.60;58.00
24744;DHT22;12844;52.110;5.548;2024-02-21T02:18:16;18.50;57.90
24744;DHT22;12844;52.110;5.548;2024-02-21T02:20:42;18.60;58.00
24744;DHT22;12844;52.110;5.548;2024-02-21T02:25:46;18.60;58.00
24744;DHT22;12844;52.110;5.548;2024-02-21T02:28:15;18.60;58.00
24744;DHT22;12844;52.110;5.548;2024-02-21T02:30:40;18.50;58.60
24744;DHT22;12844;52.110;5.548;2024-02-21T02:33:06;18.50;57.90
24744;DHT22;12844;52.110;5.548;2024-02-21T02:35:32;18.60;58.00
24744;DHT22;12844;52.110;5.548;2024-02-21T02:37:58;18.50;58.50
24744;DHT22;12844;52.110;5.548;2024-02-21T02:40:24;18.50;57.90
24744;DHT22;12844;52.110;5.548;2024-02-21T02:42:50;18.50;58.50
24744;DHT22;12844;52.110;5.548;2024-02-21T02:45:17;18.50;57.90
24744;DHT22;12844;52.110;5.548;2024-02-21T02:47:45;18.50;58.50
24744;DHT22;12844;52.110;5.548;2024-02-21T02:50:13;18.50;57.90
24744;DHT22;12844;52.110;5.548;2024-02-21T02:52:39;18.50;57.90
24744;DHT22;12844;52.110;5.548;2024-02-21T02:55:06;18.50;57.90
24744;DHT22;12844;52.110;5.548;2024-02-21T02:57:32;18.50;57.90
24744;DHT22;12844;52.110;5.548;2024-02-21T02:59:58;18.50;57.90
24744;DHT22;12844;52.110;5.548;2024-02-21T03:02:24;18.50;57.90
24744;DHT22;12844;52.110;5.548;2024-02-21T03:04:49;18.50;57.90
24744;DHT22;12844;52.110;5.548;2024-02-21T03:07:15;18.50;57.90
24744;DHT22;12844;52.110;5.548;2024-02-21T03:09:41;18.50;57.90
24744;DHT22;12844;52.110;5.548;2024-02-21T03:12:08;18.50;57.90
24744;DHT22;12844;52.110;5.548;2024-02-21T03:14:34;18.50;57.90
24744;DHT22;12844;52.110;5.548;2024-02-21T03:17:01;18.50;57.90
24744;DHT22;12844;52.110;5.548;2024-02-21T03:19:27;18.50;57.80
24744;DHT22;12844;52.110;5.548;2024-02-21T03:21:53;18.50;57.90
24744;DHT22;12844;52.110;5.548;2024-02-21T03:24:19;18.50;57.90
24744;DHT22;12844;52.110;5.548;2024-02-21T03:26:45;18.50;57.90
24744;DHT22;12844;52.110;5.548;2024-02-21T03:29:19;18.50;57.90
24744;DHT22;12844;52.110;5.548;2024-02-21T03:31:45;18.40;57.80
24744;DHT22;12844;52.110;5.548;2024-02-21T03:34:11;18.40;57.90
24744;DHT22;12844;52.110;5.548;2024-02-21T03:36:36;18.50;57.90
24744;DHT22;12844;52.110;5.548;2024-02-21T03:39:02;18.40;57.80
24744;DHT22;12844;52.110;5.548;2024-02-21T03:41:29;18.40;57.90
24744;DHT22;12844;52.110;5.548;2024-02-21T03:43:54;18.40;57.90
24744;DHT22;12844;52.110;5.548;2024-02-21T03:46:20;18.40;57.80
24744;DHT22;12844;52.110;5.548;2024-02-21T03:48:46;18.40;57.80
24744;DHT22;12844;52.110;5.548;2024-02-21T03:51:11;18.40;57.80
24744;DHT22;12844;52.110;5.548;2024-02-21T03:53:37;18.40;57.80
24744;DHT22;12844;52.110;5.548;2024-02-21T03:56:03;18.50;57.80
24744;DHT22;12844;52.110;5.548;2024-02-21T03:58:30;18.40;57.80
24744;DHT22;12844;52.110;5.548;2024-02-21T04:00:56;18.40;57.80
24744;DHT22;12844;52.110;5.548;2024-02-21T04:03:21;18.40;57.80
24744;DHT22;12844;52.110;5.548;2024-02-21T04:05:47;18.40;57.80
24744;DHT22;12844;52.110;5.548;2024-02-21T04:08:14;18.40;57.80
24744;DHT22;12844;52.110;5.548;2024-02-21T04:10:39;18.40;57.80
24744;DHT22;12844;52.110;5.548;2024-02-21T04:13:06;18.40;57.80
24744;DHT22;12844;52.110;5.548;2024-02-21T04:15:32;18.30;57.80
24744;DHT22;12844;52.110;5.548;2024-02-21T04:17:58;18.30;57.80
24744;DHT22;12844;52.110;5.548;2024-02-21T04:20:23;18.30;57.70
24744;DHT22;12844;52.110;5.548;2024-02-21T04:22:49;18.30;57.70
24744;DHT22;12844;52.110;5.548;2024-02-21T04:25:15;18.40;57.80
24744;DHT22;12844;52.110;5.548;2024-02-21T04:27:40;18.40;57.80
24744;DHT22;12844;52.110;5.548;2024-02-21T04:30:07;18.40;57.80
24744;DHT22;12844;52.110;5.548;2024-02-21T04:32:32;18.40;57.70
24744;DHT22;12844;52.110;5.548;2024-02-21T04:34:58;18.40;57.70
24744;DHT22;12844;52.110;5.548;2024-02-21T04:37:24;18.40;57.70
24744;DHT22;12844;52.110;5.548;2024-02-21T04:39:50;18.40;58.30
24744;DHT22;12844;52.110;5.548;2024-02-21T04:42:15;18.30;57.40
24744;DHT22;12844;52.110;5.548;2024-02-21T04:44:41;18.30;57.50
24744;DHT22;12844;52.110;5.548;2024-02-21T04:47:07;18.30;57.50
24744;DHT22;12844;52.110;5.548;2024-02-21T04:49:33;18.30;57.50
24744;DHT22;12844;52.110;5.548;2024-02-21T04:51:59;18.30;57.40
24744;DHT22;12844;52.110;5.548;2024-02-21T04:54:24;18.30;58.20
24744;DHT22;12844;52.110;5.548;2024-02-21T04:56:50;18.30;57.40
24744;DHT22;12844;52.110;5.548;2024-02-21T04:59:16;18.30;57.40
24744;DHT22;12844;52.110;5.548;2024-02-21T05:01:41;18.30;57.50
24744;DHT22;12844;52.110;5.548;2024-02-21T05:04:07;18.30;57.20
24744;DHT22;12844;52.110;5.548;2024-02-21T05:06:40;18.30;57.20
24744;DHT22;12844;52.110;5.548;2024-02-21T05:09:06;18.20;57.20
24744;DHT22;12844;52.110;5.548;2024-02-21T05:11:32;18.20;57.20
24744;DHT22;12844;52.110;5.548;2024-02-21T05:13:57;18.20;57.10
24744;DHT22;12844;52.110;5.548;2024-02-21T05:16:23;18.20;57.10
24744;DHT22;12844;52.110;5.548;2024-02-21T05:18:49;18.20;57.10
24744;DHT22;12844;52.110;5.548;2024-02-21T05:21:14;18.20;57.10
24744;DHT22;12844;52.110;5.548;2024-02-21T05:23:40;18.20;57.10
24744;DHT22;12844;52.110;5.548;2024-02-21T05:26:06;18.20;57.10
24744;DHT22;12844;52.110;5.548;2024-02-21T05:28:32;18.20;57.10
24744;DHT22;12844;52.110;5.548;2024-02-21T05:30:58;18.20;57.10
24744;DHT22;12844;52.110;5.548;2024-02-21T05:33:24;18.20;57.10
24744;DHT22;12844;52.110;5.548;2024-02-21T05:35:50;18.20;57.10
24744;DHT22;12844;52.110;5.548;2024-02-21T05:38:16;18.10;57.00
24744;DHT22;12844;52.110;5.548;2024-02-21T05:40:42;18.10;57.00
24744;DHT22;12844;52.110;5.548;2024-02-21T05:43:08;18.10;57.10
24744;DHT22;12844;52.110;5.548;2024-02-21T05:45:34;18.10;57.10
24744;DHT22;12844;52.110;5.548;2024-02-21T05:48:00;18.10;57.00
24744;DHT22;12844;52.110;5.548;2024-02-21T05:50:25;18.10;57.00
24744;DHT22;12844;52.110;5.548;2024-02-21T05:52:53;18.10;57.00
24744;DHT22;12844;52.110;5.548;2024-02-21T05:55:19;18.10;57.00
24744;DHT22;12844;52.110;5.548;2024-02-21T05:57:45;18.10;57.00
24744;DHT22;12844;52.110;5.548;2024-02-21T06:00:11;18.10;57.70
24744;DHT22;12844;52.110;5.548;2024-02-21T06:02:36;18.10;57.00
24744;DHT22;12844;52.110;5.548;2024-02-21T06:05:02;18.10;57.40
24744;DHT22;12844;52.110;5.548;2024-02-21T06:07:28;18.10;57.00
24744;DHT22;12844;52.110;5.548;2024-02-21T06:09:53;18.10;57.10
24744;DHT22;12844;52.110;5.548;2024-02-21T06:12:19;18.10;57.10
24744;DHT22;12844;52.110;5.548;2024-02-21T06:14:45;18.10;57.00
24744;DHT22;12844;52.110;5.548;2024-02-21T06:17:10;18.10;57.70
24744;DHT22;12844;52.110;5.548;2024-02-21T06:19:40;18.10;57.00
24744;DHT22;12844;52.110;5.548;2024-02-21T06:22:06;18.10;57.00
24744;DHT22;12844;52.110;5.548;2024-02-21T06:24:34;18.10;57.00
24744;DHT22;12844;52.110;5.548;2024-02-21T06:26:59;18.10;56.90
24744;DHT22;12844;52.110;5.548;2024-02-21T06:29:25;18.10;56.90
24744;DHT22;12844;52.110;5.548;2024-02-21T06:42:31;18.00;57.50
24744;DHT22;12844;52.110;5.548;2024-02-21T06:44:56;18.00;56.80
24744;DHT22;12844;52.110;5.548;2024-02-21T06:47:22;18.10;56.70
24744;DHT22;12844;52.110;5.548;2024-02-21T06:49:51;18.10;56.70
24744;DHT22;12844;52.110;5.548;2024-02-21T06:52:20;18.10;56.70
24744;DHT22;12844;52.110;5.548;2024-02-21T06:54:49;18.00;56.80
24744;DHT22;12844;52.110;5.548;2024-02-21T06:57:14;18.10;56.80
24744;DHT22;12844;52.110;5.548;2024-02-21T06:59:41;18.00;56.70
24744;DHT22;12844;52.110;5.548;2024-02-21T07:02:07;18.00;56.70
24744;DHT22;12844;52.110;5.548;2024-02-21T07:04:33;18.00;56.80
24744;DHT22;12844;52.110;5.548;2024-02-21T07:06:59;18.00;56.80
24744;DHT22;12844;52.110;5.548;2024-02-21T07:09:25;18.00;56.70
24744;DHT22;12844;52.110;5.548;2024-02-21T07:11:50;18.00;56.70
24744;DHT22;12844;52.110;5.548;2024-02-21T07:14:16;18.00;56.80
24744;DHT22;12844;52.110;5.548;2024-02-21T07:16:41;18.00;56.80
24744;DHT22;12844;52.110;5.548;2024-02-21T07:19:07;18.00;56.80
24744;DHT22;12844;52.110;5.548;2024-02-21T07:21:33;18.00;56.80
24744;DHT22;12844;52.110;5.548;2024-02-21T07:23:58;18.00;56.80
24744;DHT22;12844;52.110;5.548;2024-02-21T07:26:24;18.00;56.80
24744;DHT22;12844;52.110;5.548;2024-02-21T07:28:49;18.00;56.80
24744;DHT22;12844;52.110;5.548;2024-02-21T07:31:15;18.00;56.70
24744;DHT22;12844;52.110;5.548;2024-02-21T07:33:41;18.00;56.70
24744;DHT22;12844;52.110;5.548;2024-02-21T07:36:11;17.90;56.70
24744;DHT22;12844;52.110;5.548;2024-02-21T07:38:37;18.00;56.80
24744;DHT22;12844;52.110;5.548;2024-02-21T07:41:02;18.00;56.80
24744;DHT22;12844;52.110;5.548;2024-02-21T07:43:29;18.00;57.40
24744;DHT22;12844;52.110;5.548;2024-02-21T07:45:55;18.00;56.80
24744;DHT22;12844;52.110;5.548;2024-02-21T07:48:21;18.00;57.00
24744;DHT22;12844;52.110;5.548;2024-02-21T07:50:50;18.00;57.20
24744;DHT22;12844;52.110;5.548;2024-02-21T07:53:16;18.00;57.50
24744;DHT22;12844;52.110;5.548;2024-02-21T07:55:42;18.10;58.20
24744;DHT22;12844;52.110;5.548;2024-02-21T07:58:07;18.20;57.60
24744;DHT22;12844;52.110;5.548;2024-02-21T08:00:33;18.30;57.70
24744;DHT22;12844;52.110;5.548;2024-02-21T08:02:59;18.40;57.60
24744;DHT22;12844;52.110;5.548;2024-02-21T08:05:24;18.50;57.50
24744;DHT22;12844;52.110;5.548;2024-02-21T08:07:50;18.60;57.60
24744;DHT22;12844;52.110;5.548;2024-02-21T08:10:16;18.60;57.70
24744;DHT22;12844;52.110;5.548;2024-02-21T08:12:41;18.70;57.70
24744;DHT22;12844;52.110;5.548;2024-02-21T08:15:08;18.80;57.80
24744;DHT22;12844;52.110;5.548;2024-02-21T08:17:36;18.90;58.20
24744;DHT22;12844;52.110;5.548;2024-02-21T08:20:02;18.90;57.60
24744;DHT22;12844;52.110;5.548;2024-02-21T08:22:28;18.90;57.60
24744;DHT22;12844;52.110;5.548;2024-02-21T08:24:54;19.00;57.50
24744;DHT22;12844;52.110;5.548;2024-02-21T08:27:19;19.10;57.50
24744;DHT22;12844;52.110;5.548;2024-02-21T08:29:45;19.10;57.30
24744;DHT22;12844;52.110;5.548;2024-02-21T08:32:10;19.10;57.20
24744;DHT22;12844;52.110;5.548;2024-02-21T08:34:36;19.10;57.40
24744;DHT22;12844;52.110;5.548;2024-02-21T08:37:02;19.20;57.50
24744;DHT22;12844;52.110;5.548;2024-02-21T08:39:27;19.20;57.50
24744;DHT22;12844;52.110;5.548;2024-02-21T08:41:56;19.20;57.30
24744;DHT22;12844;52.110;5.548;2024-02-21T08:44:25;19.20;57.20
24744;DHT22;12844;52.110;5.548;2024-02-21T08:46:53;19.20;57.20
24744;DHT22;12844;52.110;5.548;2024-02-21T08:49:19;19.20;57.20
24744;DHT22;12844;52.110;5.548;2024-02-21T08:51:44;19.20;57.40
24744;DHT22;12844;52.110;5.548;2024-02-21T08:54:12;19.20;57.50
24744;DHT22;12844;52.110;5.548;2024-02-21T08:56:37;19.20;57.40
24744;DHT22;12844;52.110;5.548;2024-02-21T08:59:03;19.20;57.40
24744;DHT22;12844;52.110;5.548;2024-02-21T09:01:29;19.20;57.60
24744;DHT22;12844;52.110;5.548;2024-02-21T09:03:54;19.10;57.60
24744;DHT22;12844;52.110;5.548;2024-02-21T09:06:22;19.20;57.70
24744;DHT22;12844;52.110;5.548;2024-02-21T09:08:48;19.20;57.60
24744;DHT22;12844;52.110;5.548;2024-02-21T09:11:13;19.20;57.50
24744;DHT22;12844;52.110;5.548;2024-02-21T09:13:39;19.20;57.60
24744;DHT22;12844;52.110;5.548;2024-02-21T09:16:05;19.10;57.80
24744;DHT22;12844;52.110;5.548;2024-02-21T09:18:31;19.10;58.50
24744;DHT22;12844;52.110;5.548;2024-02-21T09:20:57;19.20;57.90
24744;DHT22;12844;52.110;5.548;2024-02-21T09:23:25;19.20;57.80
24744;DHT22;12844;52.110;5.548;2024-02-21T09:25:51;19.30;58.30
24744;DHT22;12844;52.110;5.548;2024-02-21T09:28:17;19.40;57.80
24744;DHT22;12844;52.110;5.548;2024-02-21T09:30:44;19.40;57.80
24744;DHT22;12844;52.110;5.548;2024-02-21T09:33:11;19.50;57.60
24744;DHT22;12844;52.110;5.548;2024-02-21T09:35:36;19.50;57.60
24744;DHT22;12844;52.110;5.548;2024-02-21T09:38:02;19.60;57.40
24744;DHT22;12844;52.110;5.548;2024-02-21T09:40:28;19.70;57.30
24744;DHT22;12844;52.110;5.548;2024-02-21T09:43:17;19.70;57.50
24744;DHT22;12844;52.110;5.548;2024-02-21T09:45:46;19.80;57.20
24744;DHT22;12844;52.110;5.548;2024-02-21T09:51:01;19.80;57.20
24744;DHT22;12844;52.110;5.548;2024-02-21T09:53:27;19.80;57.30
24744;DHT22;12844;52.110;5.548;2024-02-21T09:55:54;19.80;57.40
24744;DHT22;12844;52.110;5.548;2024-02-21T09:58:21;19.80;57.40
24744;DHT22;12844;52.110;5.548;2024-02-21T10:00:46;19.80;57.50
24744;DHT22;12844;52.110;5.548;2024-02-21T10:03:12;19.80;57.50
24744;DHT22;12844;52.110;5.548;2024-02-21T10:05:38;19.80;57.30
24744;DHT22;12844;52.110;5.548;2024-02-21T10:08:05;19.80;57.10
24744;DHT22;12844;52.110;5.548;2024-02-21T10:10:44;19.80;57.10
24744;DHT22;12844;52.110;5.548;2024-02-21T10:13:10;19.80;57.10
24744;DHT22;12844;52.110;5.548;2024-02-21T10:15:37;19.80;57.70
24744;DHT22;12844;52.110;5.548;2024-02-21T10:18:03;19.80;57.10
24744;DHT22;12844;52.110;5.548;2024-02-21T10:20:29;19.80;57.10
24744;DHT22;12844;52.110;5.548;2024-02-21T10:23:02;19.70;57.10
24744;DHT22;12844;52.110;5.548;2024-02-21T10:25:28;19.70;57.20
24744;DHT22;12844;52.110;5.548;2024-02-21T10:27:56;19.60;57.50
24744;DHT22;12844;52.110;5.548;2024-02-21T10:30:21;19.50;57.50
24744;DHT22;12844;52.110;5.548;2024-02-21T10:32:54;19.50;57.60
24744;DHT22;12844;52.110;5.548;2024-02-21T10:35:30;19.50;57.60
24744;DHT22;12844;52.110;5.548;2024-02-21T10:37:59;19.60;57.60
24744;DHT22;12844;52.110;5.548;2024-02-21T10:40:29;19.60;57.50
24744;DHT22;12844;52.110;5.548;2024-02-21T10:42:58;19.60;57.50
24744;DHT22;12844;52.110;5.548;2024-02-21T10:45:34;19.60;57.50
24744;DHT22;12844;52.110;5.548;2024-02-21T10:48:12;19.60;57.50
24744;DHT22;12844;52.110;5.548;2024-02-21T10:54:07;19.50;57.50
24744;DHT22;12844;52.110;5.548;2024-02-21T10:56:22;19.50;57.50
24744;DHT22;12844;52.110;5.548;2024-02-21T10:58:50;19.50;57.50
24744;DHT22;12844;52.110;5.548;2024-02-21T11:01:18;19.50;57.60
24744;DHT22;12844;52.110;5.548;2024-02-21T11:03:45;19.60;57.50
24744;DHT22;12844;52.110;5.548;2024-02-21T11:06:12;19.70;57.40
24744;DHT22;12844;52.110;5.548;2024-02-21T11:08:39;19.70;57.30
24744;DHT22;12844;52.110;5.548;2024-02-21T11:11:05;19.70;57.20
24744;DHT22;12844;52.110;5.548;2024-02-21T11:13:37;19.80;57.30
24744;DHT22;12844;52.110;5.548;2024-02-21T11:16:10;19.90;57.30
24744;DHT22;12844;52.110;5.548;2024-02-21T11:18:38;19.90;57.20
24744;DHT22;12844;52.110;5.548;2024-02-21T11:21:04;20.00;57.40
24744;DHT22;12844;52.110;5.548;2024-02-21T11:23:30;20.00;57.30
24744;DHT22;12844;52.110;5.548;2024-02-21T11:26:06;20.10;57.20
24744;DHT22;12844;52.110;5.548;2024-02-21T11:28:32;20.10;57.00
24744;DHT22;12844;52.110;5.548;2024-02-21T11:31:08;20.10;57.10
24744;DHT22;12844;52.110;5.548;2024-02-21T11:33:34;20.10;57.10
24744;DHT22;12844;52.110;5.548;2024-02-21T11:36:01;20.10;57.20
24744;DHT22;12844;52.110;5.548;2024-02-21T11:38:29;20.10;57.00
24744;DHT22;12844;52.110;5.548;2024-02-21T11:40:54;20.10;56.90
24744;DHT22;12844;52.110;5.548;2024-02-21T11:43:20;20.10;56.90
24744;DHT22;12844;52.110;5.548;2024-02-21T11:45:45;20.10;56.90
24744;DHT22;12844;52.110;5.548;2024-02-21T11:48:11;20.00;57.10
24744;DHT22;12844;52.110;5.548;2024-02-21T11:50:37;20.00;57.10
24744;DHT22;12844;52.110;5.548;2024-02-21T11:53:05;20.00;57.10
24744;DHT22;12844;52.110;5.548;2024-02-21T11:55:30;20.00;57.70
24744;DHT22;12844;52.110;5.548;2024-02-21T11:57:56;20.00;57.20
24744;DHT22;12844;52.110;5.548;2024-02-21T12:00:22;20.00;57.20
24744;DHT22;12844;52.110;5.548;2024-02-21T12:02:50;20.00;57.20
24744;DHT22;12844;52.110;5.548;2024-02-21T12:05:16;19.90;57.20
24744;DHT22;12844;52.110;5.548;2024-02-21T12:07:42;20.00;57.30
24744;DHT22;12844;52.110;5.548;2024-02-21T12:10:11;20.00;57.30
24744;DHT22;12844;52.110;5.548;2024-02-21T12:12:37;19.90;57.30
24744;DHT22;12844;52.110;5.548;2024-02-21T12:15:04;19.90;57.30
24744;DHT22;12844;52.110;5.548;2024-02-21T12:17:34;20.00;57.20
24744;DHT22;12844;52.110;5.548;2024-02-21T12:20:01;20.00;57.10
24744;DHT22;12844;52.110;5.548;2024-02-21T12:22:29;20.00;57.10
24744;DHT22;12844;52.110;5.548;2024-02-21T12:24:58;20.00;57.00
24744;DHT22;12844;52.110;5.548;2024-02-21T12:27:23;20.10;56.90
24744;DHT22;12844;52.110;5.548;2024-02-21T12:29:49;20.10;56.80
24744;DHT22;12844;52.110;5.548;2024-02-21T12:32:14;20.20;56.70
24744;DHT22;12844;52.110;5.548;2024-02-21T12:34:40;20.10;56.70
24744;DHT22;12844;52.110;5.548;2024-02-21T12:37:06;20.10;57.40
24744;DHT22;12844;52.110;5.548;2024-02-21T12:39:32;20.00;56.70
24744;DHT22;12844;52.110;5.548;2024-02-21T12:41:58;20.00;56.80
24744;DHT22;12844;52.110;5.548;2024-02-21T12:44:23;20.00;56.80
24744;DHT22;12844;52.110;5.548;2024-02-21T12:46:49;20.00;57.00
24744;DHT22;12844;52.110;5.548;2024-02-21T12:49:18;19.90;57.00
24744;DHT22;12844;52.110;5.548;2024-02-21T12:51:44;19.90;57.00
24744;DHT22;12844;52.110;5.548;2024-02-21T12:54:12;19.90;57.00
24744;DHT22;12844;52.110;5.548;2024-02-21T12:56:37;19.90;56.90
24744;DHT22;12844;52.110;5.548;2024-02-21T12:59:03;19.90;57.10
24744;DHT22;12844;52.110;5.548;2024-02-21T13:01:29;19.80;57.00
24744;DHT22;12844;52.110;5.548;2024-02-21T13:03:54;19.90;57.20
24744;DHT22;12844;52.110;5.548;2024-02-21T13:06:21;19.80;57.30
24744;DHT22;12844;52.110;5.548;2024-02-21T13:08:47;19.80;57.30
24744;DHT22;12844;52.110;5.548;2024-02-21T13:11:12;19.80;57.20
24744;DHT22;12844;52.110;5.548;2024-02-21T13:13:38;19.70;57.20
24744;DHT22;12844;52.110;5.548;2024-02-21T13:16:04;19.70;57.20
24744;DHT22;12844;52.110;5.548;2024-02-21T13:18:30;19.70;57.30
24744;DHT22;12844;52.110;5.548;2024-02-21T13:20:56;19.70;57.40
24744;DHT22;12844;52.110;5.548;2024-02-21T13:23:21;19.70;57.50
24744;DHT22;12844;52.110;5.548;2024-02-21T13:25:47;19.70;57.50
24744;DHT22;12844;52.110;5.548;2024-02-21T13:28:13;19.70;57.70
24744;DHT22;12844;52.110;5.548;2024-02-21T13:30:40;19.70;57.70
24744;DHT22;12844;52.110;5.548;2024-02-21T13:33:06;19.60;57.70
24744;DHT22;12844;52.110;5.548;2024-02-21T13:35:32;19.60;57.70
24744;DHT22;12844;52.110;5.548;2024-02-21T13:37:58;19.60;57.70
24744;DHT22;12844;52.110;5.548;2024-02-21T13:40:23;19.60;57.70
24744;DHT22;12844;52.110;5.548;2024-02-21T13:42:50;19.60;57.60
24744;DHT22;12844;52.110;5.548;2024-02-21T13:45:16;19.50;57.60
24744;DHT22;12844;52.110;5.548;2024-02-21T13:47:42;19.50;57.70
24744;DHT22;12844;52.110;5.548;2024-02-21T13:50:08;19.50;57.80
24744;DHT22;12844;52.110;5.548;2024-02-21T13:52:36;19.50;57.80
24744;DHT22;12844;52.110;5.548;2024-02-21T13:55:02;19.50;57.90
24744;DHT22;12844;52.110;5.548;2024-02-21T13:57:28;19.50;57.90
24744;DHT22;12844;52.110;5.548;2024-02-21T13:59:54;19.50;58.50
24744;DHT22;12844;52.110;5.548;2024-02-21T14:02:19;19.50;57.90
24744;DHT22;12844;52.110;5.548;2024-02-21T14:04:46;19.40;57.90
24744;DHT22;12844;52.110;5.548;2024-02-21T14:07:12;19.40;57.90
24744;DHT22;12844;52.110;5.548;2024-02-21T14:09:38;19.40;57.80
24744;DHT22;12844;52.110;5.548;2024-02-21T14:12:04;19.40;57.90
24744;DHT22;12844;52.110;5.548;2024-02-21T14:14:34;19.40;57.90
24744;DHT22;12844;52.110;5.548;2024-02-21T14:17:00;19.40;57.90
24744;DHT22;12844;52.110;5.548;2024-02-21T14:19:26;19.40;57.90
24744;DHT22;12844;52.110;5.548;2024-02-21T14:21:51;19.40;57.90
24744;DHT22;12844;52.110;5.548;2024-02-21T14:24:18;19.40;58.00
24744;DHT22;12844;52.110;5.548;2024-02-21T14:26:43;19.40;58.00
24744;DHT22;12844;52.110;5.548;2024-02-21T14:29:09;19.40;57.90
24744;DHT22;12844;52.110;5.548;2024-02-21T14:31:35;19.40;58.00
24744;DHT22;12844;52.110;5.548;2024-02-21T14:34:01;19.40;58.00
24744;DHT22;12844;52.110;5.548;2024-02-21T14:36:27;19.40;58.00
24744;DHT22;12844;52.110;5.548;2024-02-21T14:38:53;19.40;58.10
24744;DHT22;12844;52.110;5.548;2024-02-21T14:41:19;19.30;58.00
24744;DHT22;12844;52.110;5.548;2024-02-21T14:43:45;19.30;58.00
24744;DHT22;12844;52.110;5.548;2024-02-21T14:46:11;19.30;58.00
24744;DHT22;12844;52.110;5.548;2024-02-21T14:48:38;19.30;58.00
24744;DHT22;12844;52.110;5.548;2024-02-21T14:51:04;19.30;58.00
24744;DHT22;12844;52.110;5.548;2024-02-21T14:53:30;19.30;58.00
24744;DHT22;12844;52.110;5.548;2024-02-21T14:55:56;19.30;58.00
24744;DHT22;12844;52.110;5.548;2024-02-21T14:58:23;19.30;58.00
24744;DHT22;12844;52.110;5.548;2024-02-21T15:00:49;19.20;57.70
24744;DHT22;12844;52.110;5.548;2024-02-21T15:03:16;19.20;57.80
24744;DHT22;12844;52.110;5.548;2024-02-21T15:05:45;19.20;57.70
24744;DHT22;12844;52.110;5.548;2024-02-21T15:08:11;19.20;57.70
24744;DHT22;12844;52.110;5.548;2024-02-21T15:10:38;19.20;57.60
24744;DHT22;12844;52.110;5.548;2024-02-21T15:13:03;19.20;57.70
24744;DHT22;12844;52.110;5.548;2024-02-21T15:15:29;19.20;57.60
24744;DHT22;12844;52.110;5.548;2024-02-21T15:17:55;19.20;57.60
24744;DHT22;12844;52.110;5.548;2024-02-21T15:20:20;19.20;57.70
24744;DHT22;12844;52.110;5.548;2024-02-21T15:22:46;19.20;57.50
24744;DHT22;12844;52.110;5.548;2024-02-21T15:25:11;19.20;57.60
24744;DHT22;12844;52.110;5.548;2024-02-21T15:27:44;19.10;57.50
24744;DHT22;12844;52.110;5.548;2024-02-21T15:30:11;19.10;57.50
24744;DHT22;12844;52.110;5.548;2024-02-21T15:32:38;19.10;57.70
24744;DHT22;12844;52.110;5.548;2024-02-21T15:35:05;19.20;57.70
24744;DHT22;12844;52.110;5.548;2024-02-21T15:37:32;19.10;57.70
24744;DHT22;12844;52.110;5.548;2024-02-21T15:39:58;19.10;58.40
24744;DHT22;12844;52.110;5.548;2024-02-21T15:42:23;19.10;57.60
24744;DHT22;12844;52.110;5.548;2024-02-21T15:44:49;19.10;58.30
24744;DHT22;12844;52.110;5.548;2024-02-21T15:47:15;19.10;57.70
24744;DHT22;12844;52.110;5.548;2024-02-21T15:49:43;19.10;57.90
24744;DHT22;12844;52.110;5.548;2024-02-21T15:52:08;19.10;57.80